Time;durP1;ratioP1;P1;durP2;ratioP2;P2;SDS_P1;SDS_P2;PMS_P1;PMS_P2;Temp;Humidity;BMP_temperature;BMP_pressure;BME280_temperature;BME280_humidity;BME280_pressure;Samples;Min_cycle;Max_cycle;Signal;HPM_P1;HPM_P2
2021/09/12 00:01:34;;;;;;;25.07;23.60;;;16.60;94.50;;;;;;5070851;28;20844;-71
2021/09/12 00:04:01;;;;;;;24.40;23.00;;;16.50;94.60;;;;;;5067185;28;20457;-70
2021/09/12 00:06:30;;;;;;;23.90;22.40;;;16.50;94.50;;;;;;5067980;28;20907;-71
2021/09/12 00:08:57;;;;;;;24.63;23.13;;;16.50;94.50;;;;;;5066943;28;20481;-71
2021/09/12 00:11:24;;;;;;;24.37;22.70;;;16.50;94.30;;;;;;5068420;28;20479;-70
2021/09/12 00:13:51;;;;;;;24.23;22.83;;;16.50;94.20;;;;;;5072860;28;20546;-71
2021/09/12 00:16:19;;;;;;;24.60;23.10;;;16.50;94.10;;;;;;5064566;28;20548;-70
2021/09/12 00:18:46;;;;;;;23.83;22.40;;;16.50;94.30;;;;;;5063406;28;20470;-71
2021/09/12 00:21:13;;;;;;;24.13;22.70;;;16.40;94.50;;;;;;5068279;28;20980;-70
2021/09/12 00:23:41;;;;;;;24.60;22.97;;;16.40;94.60;;;;;;5067112;28;20551;-70
2021/09/12 00:26:08;;;;;;;24.80;23.20;;;16.40;94.50;;;;;;5067364;28;21002;-70
2021/09/12 00:28:35;;;;;;;25.40;23.90;;;16.30;94.60;;;;;;5066833;28;20475;-70
2021/09/12 00:31:02;;;;;;;23.30;22.00;;;16.30;94.50;;;;;;5067668;28;20490;-70
2021/09/12 00:33:31;;;;;;;24.60;22.90;;;16.30;94.40;;;;;;5072289;28;20950;-70
2021/09/12 00:35:58;;;;;;;25.77;23.60;;;16.30;94.20;;;;;;5066760;28;21331;-70
2021/09/12 00:38:25;;;;;;;24.50;23.00;;;16.30;94.20;;;;;;5065483;28;20473;-70
2021/09/12 00:40:57;;;;;;;25.00;23.13;;;16.20;94.40;;;;;;5068525;28;20820;-71
2021/09/12 00:43:24;;;;;;;25.03;23.40;;;16.20;94.40;;;;;;5070051;28;20453;-70
2021/09/12 00:45:53;;;;;;;24.00;22.60;;;16.20;94.70;;;;;;5066169;28;20456;-71
2021/09/12 00:48:20;;;;;;;24.53;22.70;;;16.20;94.60;;;;;;5064984;28;20459;-70
2021/09/12 00:50:47;;;;;;;24.40;23.10;;;16.10;94.70;;;;;;5068467;28;20950;-71
2021/09/12 00:53:16;;;;;;;24.50;22.90;;;16.10;94.70;;;;;;5067337;28;20494;-70
2021/09/12 00:55:44;;;;;;;24.63;23.17;;;16.00;94.70;;;;;;5055287;28;20455;-71
2021/09/12 00:58:15;;;;;;;24.07;22.57;;;16.10;94.60;;;;;;5066421;28;20456;-71
2021/09/12 01:00:43;;;;;;;23.77;22.40;;;16.10;94.70;;;;;;5070773;28;20463;-70
2021/09/12 01:03:10;;;;;;;23.67;22.27;;;16.00;94.70;;;;;;5069529;28;20459;-70
2021/09/12 01:05:38;;;;;;;23.13;21.70;;;16.00;94.80;;;;;;5071445;28;20454;-70
2021/09/12 01:08:05;;;;;;;23.90;22.50;;;15.90;94.80;;;;;;5071254;28;20545;-70
2021/09/12 01:10:32;;;;;;;24.10;22.33;;;15.90;94.80;;;;;;5077674;28;20519;-70
2021/09/12 01:12:59;;;;;;;24.60;23.00;;;15.90;94.90;;;;;;5069385;28;20475;-70
2021/09/12 01:15:27;;;;;;;24.93;23.43;;;15.90;94.70;;;;;;5071287;28;20542;-70
2021/09/12 01:17:54;;;;;;;26.70;25.03;;;15.90;94.60;;;;;;5070268;28;20466;-71
2021/09/12 01:20:21;;;;;;;25.20;23.40;;;15.90;94.70;;;;;;5072522;28;20473;-70
2021/09/12 01:22:49;;;;;;;24.40;23.10;;;15.90;94.80;;;;;;5065579;28;20916;-70
2021/09/12 01:25:17;;;;;;;24.50;22.97;;;15.80;94.80;;;;;;5072697;28;20901;-70
2021/09/12 01:27:45;;;;;;;24.60;23.10;;;15.80;94.80;;;;;;5069684;28;20542;-70
2021/09/12 01:30:12;;;;;;;24.30;22.73;;;15.80;94.90;;;;;;5070640;28;20474;-71
2021/09/12 01:32:39;;;;;;;24.20;22.80;;;15.80;95.00;;;;;;5069411;28;20571;-70
2021/09/12 01:35:08;;;;;;;25.00;23.50;;;15.80;94.80;;;;;;5080798;28;20794;-70
2021/09/12 01:37:34;;;;;;;24.27;22.97;;;15.70;94.80;;;;;;5071060;28;20450;-70
2021/09/12 01:40:01;;;;;;;24.63;23.13;;;15.70;94.80;;;;;;5072224;28;20488;-70
2021/09/12 01:42:30;;;;;;;25.40;23.90;;;15.70;94.90;;;;;;5070629;28;20528;-70
2021/09/12 01:44:56;;;;;;;23.83;22.33;;;15.70;94.90;;;;;;5061350;28;20940;-70
2021/09/12 01:47:24;;;;;;;23.23;21.83;;;15.70;94.70;;;;;;5068557;28;20459;-70
2021/09/12 01:49:51;;;;;;;23.30;22.10;;;15.70;94.70;;;;;;5069785;28;21262;-70
2021/09/12 01:52:17;;;;;;;23.50;22.20;;;15.70;94.50;;;;;;5070290;28;20474;-70
2021/09/12 01:54:44;;;;;;;23.43;22.03;;;15.60;94.40;;;;;;5069580;28;20632;-70
2021/09/12 01:57:11;;;;;;;22.77;21.47;;;15.60;94.50;;;;;;5071110;28;20459;-70
2021/09/12 01:59:39;;;;;;;23.43;22.07;;;15.50;94.70;;;;;;5082046;28;21041;-70
2021/09/12 02:02:06;;;;;;;23.40;22.10;;;15.60;94.50;;;;;;5067957;28;20506;-71
2021/09/12 02:04:33;;;;;;;25.07;23.17;;;15.60;94.30;;;;;;5077469;28;20454;-71
2021/09/12 02:07:00;;;;;;;25.33;23.70;;;15.60;94.40;;;;;;5070795;28;20950;-71
2021/09/12 02:09:27;;;;;;;24.90;23.27;;;15.60;94.30;;;;;;5068146;28;20500;-70
2021/09/12 02:11:54;;;;;;;23.60;22.30;;;15.60;94.10;;;;;;5062890;28;20477;-70
2021/09/12 02:14:21;;;;;;;24.30;22.80;;;15.60;94.00;;;;;;5068615;28;20973;-70
2021/09/12 02:16:50;;;;;;;23.93;22.50;;;15.50;94.10;;;;;;5066277;28;20456;-71
2021/09/12 02:19:17;;;;;;;24.10;22.70;;;15.50;94.20;;;;;;5070008;28;20474;-70
2021/09/12 02:21:44;;;;;;;23.70;22.20;;;15.50;94.10;;;;;;5070601;28;20561;-70
2021/09/12 02:24:11;;;;;;;23.60;22.30;;;15.50;94.10;;;;;;5069096;28;20457;-71
2021/09/12 02:26:38;;;;;;;25.00;23.50;;;15.50;94.10;;;;;;5069305;28;20927;-70
2021/09/12 02:29:05;;;;;;;24.50;22.87;;;15.50;93.80;;;;;;5075858;28;20556;-70
2021/09/12 02:31:32;;;;;;;25.07;23.37;;;15.50;94.30;;;;;;5070197;28;20476;-71
2021/09/12 02:34:00;;;;;;;25.10;23.70;;;15.50;94.30;;;;;;5076051;28;20461;-70
2021/09/12 02:36:27;;;;;;;24.50;23.10;;;15.40;94.30;;;;;;5073165;28;20461;-70
2021/09/12 02:38:54;;;;;;;24.63;23.13;;;15.40;94.40;;;;;;5071120;28;20481;-70
2021/09/12 02:41:21;;;;;;;25.23;23.63;;;15.40;94.20;;;;;;5067305;28;20490;-71
2021/09/12 02:43:48;;;;;;;25.07;23.57;;;15.40;94.20;;;;;;5066406;28;20462;-70
2021/09/12 02:46:15;;;;;;;26.53;25.03;;;15.30;94.50;;;;;;5069076;28;20467;-70
2021/09/12 02:48:42;;;;;;;26.67;24.97;;;15.30;94.60;;;;;;5074289;28;20496;-70
2021/09/12 02:51:10;;;;;;;25.33;23.73;;;15.30;94.60;;;;;;5076564;28;20458;-70
2021/09/12 02:53:37;;;;;;;24.67;22.90;;;15.30;94.60;;;;;;5071302;28;20464;-70
2021/09/12 02:56:04;;;;;;;25.20;23.80;;;15.30;94.40;;;;;;5076380;28;20452;-70
2021/09/12 02:58:31;;;;;;;25.00;23.60;;;15.20;94.50;;;;;;5071411;28;20556;-70
2021/09/12 03:00:58;;;;;;;26.13;24.33;;;15.20;94.20;;;;;;5069811;28;20544;-70
2021/09/12 03:03:25;;;;;;;25.30;23.70;;;15.20;94.30;;;;;;5072184;28;20533;-70
2021/09/12 03:05:52;;;;;;;25.00;23.33;;;15.20;94.20;;;;;;5077353;28;20468;-70
2021/09/12 03:08:21;;;;;;;25.20;23.60;;;15.20;94.40;;;;;;5069803;28;20471;-70
2021/09/12 03:10:48;;;;;;;25.40;23.60;;;15.10;94.30;;;;;;5064910;28;20477;-70
2021/09/12 03:13:15;;;;;;;25.80;24.30;;;15.10;94.50;;;;;;5065308;28;20575;-70
2021/09/12 03:15:42;;;;;;;24.20;22.80;;;15.10;94.50;;;;;;5068399;28;20469;-70
2021/09/12 03:18:09;;;;;;;24.93;23.43;;;15.10;94.40;;;;;;5069006;28;20454;-70
2021/09/12 03:20:36;;;;;;;25.07;23.57;;;15.00;94.60;;;;;;5073800;28;20466;-70
2021/09/12 03:23:03;;;;;;;25.10;23.40;;;15.10;94.50;;;;;;5067440;28;20446;-70
2021/09/12 03:25:32;;;;;;;24.20;22.80;;;15.00;94.40;;;;;;5075470;28;20457;-70
2021/09/12 03:27:58;;;;;;;24.70;23.30;;;15.00;94.50;;;;;;5066034;28;20459;-70
2021/09/12 03:30:26;;;;;;;24.40;23.00;;;15.00;94.50;;;;;;5068832;28;20478;-70
2021/09/12 03:32:53;;;;;;;25.93;24.10;;;15.00;94.50;;;;;;5062130;28;20482;-70
2021/09/12 03:35:20;;;;;;;24.97;23.57;;;14.90;94.40;;;;;;5079553;28;20454;-70
2021/09/12 03:37:47;;;;;;;24.43;22.97;;;14.90;94.60;;;;;;5069258;28;20454;-70
2021/09/12 03:40:14;;;;;;;24.17;22.50;;;14.90;94.50;;;;;;5071423;28;20470;-70
2021/09/12 03:42:42;;;;;;;24.27;22.67;;;14.90;94.20;;;;;;5066303;28;20457;-70
2021/09/12 03:45:10;;;;;;;24.73;23.27;;;14.90;93.90;;;;;;5063864;28;20979;-72
2021/09/12 03:47:37;;;;;;;25.53;24.13;;;14.90;94.00;;;;;;5069156;28;20535;-70
2021/09/12 03:50:05;;;;;;;23.13;21.73;;;14.90;94.00;;;;;;5061722;28;20474;-70
2021/09/12 03:52:32;;;;;;;24.10;22.50;;;14.80;94.10;;;;;;5068304;28;20474;-70
2021/09/12 03:54:59;;;;;;;23.80;22.30;;;14.80;94.10;;;;;;5073477;28;20469;-70
2021/09/12 03:57:26;;;;;;;24.03;22.53;;;14.80;93.90;;;;;;5068743;28;20942;-70
2021/09/12 03:59:54;;;;;;;25.13;23.53;;;14.80;94.10;;;;;;5073830;28;20486;-70
2021/09/12 04:02:21;;;;;;;23.80;22.50;;;14.70;94.30;;;;;;5066895;28;20446;-70
2021/09/12 04:04:48;;;;;;;23.60;22.30;;;14.70;94.40;;;;;;5063876;28;20806;-70
2021/09/12 04:07:15;;;;;;;24.47;22.87;;;14.70;94.40;;;;;;5067938;28;20987;-70
2021/09/12 04:09:41;;;;;;;24.60;23.10;;;14.70;94.40;;;;;;5059918;28;20487;-70
2021/09/12 04:12:09;;;;;;;23.63;22.27;;;14.70;94.50;;;;;;5067577;28;20488;-71
2021/09/12 04:14:35;;;;;;;23.80;22.40;;;14.70;94.20;;;;;;5070168;28;21035;-70
2021/09/12 04:17:04;;;;;;;23.33;21.93;;;14.70;94.00;;;;;;5068126;28;20463;-70
2021/09/12 04:19:31;;;;;;;23.87;22.47;;;14.60;94.20;;;;;;5079536;28;20485;-70
2021/09/12 04:21:58;;;;;;;24.50;23.03;;;14.60;94.00;;;;;;5067098;28;20446;-70
2021/09/12 04:24:25;;;;;;;23.87;22.37;;;14.60;94.00;;;;;;5074082;28;20951;-70
2021/09/12 04:26:52;;;;;;;23.83;22.03;;;14.50;94.20;;;;;;5068066;28;20953;-70
2021/09/12 04:29:19;;;;;;;24.17;22.77;;;14.50;94.00;;;;;;5069080;28;20469;-70
2021/09/12 04:31:46;;;;;;;24.37;22.77;;;14.50;94.00;;;;;;5068219;28;21026;-70
2021/09/12 04:34:15;;;;;;;23.97;22.67;;;14.60;93.70;;;;;;5064427;28;20454;-70
2021/09/12 04:36:42;;;;;;;24.20;22.87;;;14.60;93.40;;;;;;5069713;28;20793;-70
2021/09/12 04:39:09;;;;;;;24.27;22.67;;;14.50;94.00;;;;;;5070977;28;20480;-70
2021/09/12 04:41:37;;;;;;;24.87;23.17;;;14.50;94.20;;;;;;5070864;28;20451;-70
2021/09/12 04:44:04;;;;;;;23.20;21.90;;;14.40;94.20;;;;;;5069790;28;20453;-71
2021/09/12 04:46:31;;;;;;;24.27;22.90;;;14.40;94.30;;;;;;5063515;28;20535;-70
2021/09/12 04:48:58;;;;;;;23.43;22.13;;;14.40;93.90;;;;;;5073128;28;20473;-71
2021/09/12 04:51:26;;;;;;;23.43;22.03;;;14.40;94.20;;;;;;5072008;28;20530;-70
2021/09/12 04:53:55;;;;;;;23.80;22.40;;;14.30;94.40;;;;;;5074523;28;20477;-70
2021/09/12 04:56:22;;;;;;;23.60;22.17;;;14.30;94.30;;;;;;5067468;28;20519;-70
2021/09/12 04:58:49;;;;;;;26.53;25.03;;;14.40;93.90;;;;;;5070801;28;20556;-70
2021/09/12 05:01:16;;;;;;;23.13;21.90;;;14.40;93.90;;;;;;5066015;28;20480;-70
2021/09/12 05:03:43;;;;;;;24.50;23.10;;;14.40;94.00;;;;;;5070061;28;20458;-70
2021/09/12 05:06:11;;;;;;;24.07;22.53;;;14.40;93.40;;;;;;5071585;28;20532;-70
2021/09/12 05:08:39;;;;;;;25.20;23.70;;;14.40;93.40;;;;;;5070552;28;21122;-70
2021/09/12 05:11:06;;;;;;;23.80;22.30;;;14.40;93.10;;;;;;5068632;28;20545;-70
2021/09/12 05:13:33;;;;;;;23.90;22.13;;;14.30;93.30;;;;;;5074816;28;20998;-70
2021/09/12 05:16:00;;;;;;;23.93;22.53;;;14.30;93.40;;;;;;5078636;28;21056;-70
2021/09/12 05:18:26;;;;;;;23.77;22.43;;;14.40;93.20;;;;;;5072063;28;20851;-70
2021/09/12 05:20:53;;;;;;;23.80;22.37;;;14.40;93.40;;;;;;5069132;28;20460;-70
2021/09/12 05:23:20;;;;;;;23.43;22.10;;;14.50;92.70;;;;;;5063052;28;20562;-70
2021/09/12 05:25:50;;;;;;;23.53;22.13;;;14.50;92.60;;;;;;5069138;28;20455;-70
2021/09/12 05:28:17;;;;;;;24.73;23.43;;;14.50;92.70;;;;;;5071887;28;20459;-70
2021/09/12 05:30:44;;;;;;;22.73;21.33;;;14.50;92.70;;;;;;5073349;28;20457;-70
2021/09/12 05:33:11;;;;;;;22.57;21.17;;;14.60;92.50;;;;;;5071936;28;20478;-71
2021/09/12 05:35:38;;;;;;;22.77;21.43;;;14.50;92.50;;;;;;5082392;28;20446;-70
2021/09/12 05:38:05;;;;;;;23.73;22.23;;;14.50;92.70;;;;;;5070647;28;20549;-70
2021/09/12 05:40:32;;;;;;;24.37;23.00;;;14.70;92.40;;;;;;5072858;28;20511;-70
2021/09/12 05:43:00;;;;;;;22.60;21.30;;;14.70;91.80;;;;;;5067963;28;20450;-70
2021/09/12 05:45:27;;;;;;;25.20;23.80;;;14.80;91.70;;;;;;5067587;28;20454;-70
2021/09/12 05:47:54;;;;;;;22.90;21.63;;;14.80;91.70;;;;;;5069927;28;20553;-70
2021/09/12 05:50:21;;;;;;;23.97;22.57;;;14.70;91.90;;;;;;5074427;28;20504;-70
2021/09/12 05:52:48;;;;;;;25.27;23.63;;;14.80;91.90;;;;;;5066118;28;20566;-70
2021/09/12 05:55:15;;;;;;;23.30;22.00;;;14.80;91.70;;;;;;5069839;28;20453;-70
2021/09/12 05:57:42;;;;;;;22.70;21.50;;;14.80;91.40;;;;;;5061922;28;20486;-70
2021/09/12 06:00:11;;;;;;;22.70;21.50;;;14.80;91.30;;;;;;5078862;28;21242;-70
2021/09/12 06:02:38;;;;;;;23.17;21.87;;;14.80;91.30;;;;;;5070355;28;20445;-70
2021/09/12 06:05:06;;;;;;;22.20;20.97;;;14.90;91.30;;;;;;5069782;28;20534;-71
2021/09/12 06:07:33;;;;;;;24.20;22.60;;;15.00;90.90;;;;;;5070391;28;20465;-70
2021/09/12 06:10:00;;;;;;;22.90;21.60;;;15.10;90.40;;;;;;5070200;28;20570;-70
2021/09/12 06:12:27;;;;;;;22.80;21.50;;;15.30;90.20;;;;;;5069544;28;20446;-70
2021/09/12 06:14:54;;;;;;;24.43;22.77;;;15.30;90.10;;;;;;5071153;28;20458;-70
2021/09/12 06:17:22;;;;;;;23.50;22.10;;;15.30;90.20;;;;;;5069532;28;20541;-70
2021/09/12 06:19:49;;;;;;;23.57;22.27;;;15.40;90.30;;;;;;5068987;28;20474;-70
2021/09/12 06:22:16;;;;;;;27.00;25.40;;;15.40;90.20;;;;;;5069702;28;21108;-70
2021/09/12 06:24:44;;;;;;;23.07;21.77;;;15.50;90.10;;;;;;5071370;28;20465;-70
2021/09/12 06:27:11;;;;;;;23.60;22.30;;;15.60;89.80;;;;;;5061806;28;20458;-70
2021/09/12 06:29:38;;;;;;;22.93;21.43;;;15.60;90.00;;;;;;5068970;28;20471;-70
2021/09/12 06:32:05;;;;;;;23.30;22.00;;;15.80;89.90;;;;;;5069517;28;20461;-70
2021/09/12 06:34:33;;;;;;;23.10;21.90;;;15.80;89.70;;;;;;5081247;28;20560;-70
2021/09/12 06:37:00;;;;;;;23.60;22.13;;;15.90;89.50;;;;;;5068747;28;20455;-71
2021/09/12 06:39:27;;;;;;;22.53;21.33;;;15.90;89.60;;;;;;5072080;28;20923;-74
2021/09/12 06:41:54;;;;;;;23.20;21.90;;;16.00;89.50;;;;;;5067294;28;20459;-70
2021/09/12 06:44:21;;;;;;;22.43;21.27;;;16.10;89.40;;;;;;5062409;28;20460;-71
2021/09/12 06:46:48;;;;;;;22.63;21.40;;;16.20;89.40;;;;;;5066548;28;20457;-71
2021/09/12 06:49:15;;;;;;;22.57;21.37;;;16.30;89.50;;;;;;5072901;28;20483;-71
2021/09/12 06:51:43;;;;;;;23.10;21.90;;;16.40;89.30;;;;;;5068829;28;20530;-71
2021/09/12 06:54:10;;;;;;;23.60;22.20;;;16.50;88.80;;;;;;5078321;28;20858;-70
2021/09/12 06:56:37;;;;;;;24.50;22.93;;;16.60;88.50;;;;;;5069122;28;20461;-70
2021/09/12 06:59:04;;;;;;;24.40;23.10;;;16.80;88.20;;;;;;5068022;28;20866;-71
2021/09/12 07:01:31;;;;;;;22.83;21.63;;;16.80;87.90;;;;;;5067749;28;20472;-73
2021/09/12 07:03:58;;;;;;;23.40;22.00;;;16.90;87.80;;;;;;5072437;28;20998;-70
2021/09/12 07:06:25;;;;;;;23.23;21.93;;;17.00;87.30;;;;;;5066740;28;20770;-72
2021/09/12 07:08:53;;;;;;;24.90;23.30;;;17.10;87.20;;;;;;5068891;28;20482;-72
2021/09/12 07:11:20;;;;;;;23.43;22.10;;;17.20;87.20;;;;;;5063511;28;20465;-72
2021/09/12 07:13:47;;;;;;;23.43;22.13;;;17.30;86.90;;;;;;5065904;28;20482;-71
2021/09/12 07:16:14;;;;;;;23.40;22.03;;;17.40;86.70;;;;;;5066825;28;20549;-72
2021/09/12 07:18:41;;;;;;;26.90;25.40;;;17.50;86.30;;;;;;5066083;28;20999;-72
2021/09/12 07:21:08;;;;;;;23.87;22.57;;;17.60;86.10;;;;;;5065168;28;21031;-72
2021/09/12 07:23:35;;;;;;;24.10;22.80;;;17.60;85.60;;;;;;5065421;28;21059;-73
2021/09/12 07:26:04;;;;;;;24.20;22.90;;;17.70;85.50;;;;;;5064181;28;20533;-73
2021/09/12 07:28:31;;;;;;;25.30;23.70;;;17.70;85.20;;;;;;5063036;28;20486;-72
2021/09/12 07:30:58;;;;;;;25.27;23.20;;;17.80;85.00;;;;;;5072315;28;20991;-74
2021/09/12 07:33:25;;;;;;;24.23;22.67;;;17.90;84.80;;;;;;5074636;28;21076;-73
2021/09/12 07:35:51;;;;;;;23.80;22.50;;;18.00;84.10;;;;;;5067078;28;21192;-73
2021/09/12 07:38:18;;;;;;;25.97;24.20;;;18.10;84.00;;;;;;5069621;28;20818;-74
2021/09/12 07:40:45;;;;;;;23.90;22.43;;;18.30;83.50;;;;;;5066757;28;20838;-76
2021/09/12 07:43:13;;;;;;;24.70;23.30;;;18.30;83.20;;;;;;5068801;28;20460;-76
2021/09/12 07:45:41;;;;;;;24.97;23.67;;;18.40;83.00;;;;;;5057706;28;20453;-76
2021/09/12 07:48:08;;;;;;;24.00;22.70;;;18.40;82.80;;;;;;5071074;28;20501;-75
2021/09/12 07:50:35;;;;;;;24.57;23.20;;;18.40;82.60;;;;;;5070403;28;20478;-75
2021/09/12 07:53:02;;;;;;;25.37;24.03;;;18.50;82.50;;;;;;5066847;28;20576;-75
2021/09/12 07:55:29;;;;;;;25.70;24.00;;;18.70;82.00;;;;;;5065791;28;20505;-76
2021/09/12 07:57:56;;;;;;;25.00;23.70;;;18.80;81.60;;;;;;5058400;28;20457;-77
2021/09/12 08:00:24;;;;;;;25.53;24.13;;;18.70;81.70;;;;;;5064702;28;20573;-73
2021/09/12 08:02:51;;;;;;;26.03;24.10;;;18.80;81.80;;;;;;5066451;28;21070;-74
2021/09/12 08:05:18;;;;;;;26.20;24.57;;;18.80;81.00;;;;;;5065444;28;20585;-73
2021/09/12 08:07:45;;;;;;;26.20;24.60;;;18.80;80.90;;;;;;5060391;28;20545;-74
2021/09/12 08:10:12;;;;;;;25.13;23.83;;;18.90;79.80;;;;;;5068538;28;20565;-73
2021/09/12 08:12:39;;;;;;;26.53;24.93;;;18.90;79.70;;;;;;5063028;28;20466;-73
2021/09/12 08:15:07;;;;;;;26.80;25.30;;;18.90;79.40;;;;;;5067834;28;20477;-73
2021/09/12 08:17:36;;;;;;;26.50;24.97;;;18.90;78.80;;;;;;5056190;28;20463;-73
2021/09/12 08:20:04;;;;;;;25.93;24.53;;;19.00;78.60;;;;;;5067872;28;20474;-74
2021/09/12 08:22:31;;;;;;;25.30;24.00;;;19.10;78.00;;;;;;5064918;28;20466;-74
2021/09/12 08:24:58;;;;;;;26.10;24.70;;;19.30;77.60;;;;;;5063580;28;20457;-74
2021/09/12 08:27:25;;;;;;;26.30;24.80;;;19.40;77.40;;;;;;5065221;28;20548;-74
2021/09/12 08:29:52;;;;;;;24.73;23.30;;;19.50;77.00;;;;;;5078028;28;20473;-74
2021/09/12 08:32:19;;;;;;;26.77;25.17;;;19.70;76.00;;;;;;5070761;28;20465;-74
2021/09/12 08:34:47;;;;;;;24.60;23.37;;;19.70;75.90;;;;;;5062093;28;20505;-73
2021/09/12 08:37:14;;;;;;;27.27;25.70;;;19.90;76.20;;;;;;5065636;28;20457;-73
2021/09/12 08:39:43;;;;;;;25.40;24.00;;;20.00;75.70;;;;;;5064615;28;20478;-74
2021/09/12 08:42:16;;;;;;;27.30;25.50;;;20.10;74.10;;;;;;5066284;28;20446;-73
2021/09/12 08:44:46;;;;;;;25.30;24.00;;;20.20;74.30;;;;;;5052729;28;20438;-74
2021/09/12 08:47:14;;;;;;;26.10;24.67;;;20.30;74.30;;;;;;5066866;28;20461;-74
2021/09/12 08:49:41;;;;;;;26.70;25.20;;;20.40;74.00;;;;;;5071861;28;20493;-74
2021/09/12 08:52:10;;;;;;;25.77;24.37;;;20.50;73.80;;;;;;5065895;28;20457;-74
2021/09/12 08:54:38;;;;;;;25.77;24.30;;;20.60;73.50;;;;;;5064952;28;20471;-74
2021/09/12 08:57:05;;;;;;;27.60;26.03;;;20.70;72.90;;;;;;5060807;28;20458;-76
2021/09/12 08:59:34;;;;;;;26.10;24.70;;;20.70;72.90;;;;;;5063558;28;20480;-73
2021/09/12 09:02:03;;;;;;;26.50;25.20;;;20.90;72.20;;;;;;5066817;28;20462;-71
2021/09/12 09:04:32;;;;;;;27.30;25.67;;;21.00;71.30;;;;;;5071878;28;20465;-70
2021/09/12 09:07:00;;;;;;;26.47;25.07;;;20.90;71.90;;;;;;5066346;28;21004;-71
2021/09/12 09:09:46;;;;;;;26.37;24.97;;;20.90;71.90;;;;;;5065271;28;21226;-70
2021/09/12 09:12:24;;;;;;;25.70;24.40;;;21.10;70.70;;;;;;5065935;28;20545;-70
2021/09/12 09:15:10;;;;;;;26.17;24.80;;;21.20;71.10;;;;;;5062985;28;20478;-70
2021/09/12 09:17:39;;;;;;;27.10;25.63;;;21.30;70.60;;;;;;5064040;28;20461;-71
2021/09/12 09:20:08;;;;;;;27.10;25.50;;;21.30;69.00;;;;;;5075933;28;20477;-71
2021/09/12 09:22:37;;;;;;;25.40;24.10;;;21.40;69.00;;;;;;5069719;28;20949;-71
2021/09/12 09:25:20;;;;;;;25.90;24.50;;;21.50;67.10;;;;;;5074732;28;20461;-71
2021/09/12 09:28:02;;;;;;;26.27;24.87;;;21.50;67.40;;;;;;5065993;28;21051;-71
2021/09/12 09:30:33;;;;;;;26.60;25.10;;;21.50;68.20;;;;;;5057659;28;21024;-71
2021/09/12 09:33:17;;;;;;;27.03;25.53;;;21.60;69.10;;;;;;5068169;28;20499;-71
2021/09/12 09:35:52;;;;;;;27.73;26.13;;;21.70;68.80;;;;;;5070192;28;20457;-72
2021/09/12 09:38:20;;;;;;;26.37;24.93;;;21.80;68.60;;;;;;5070316;28;20460;-71
2021/09/12 09:41:00;;;;;;;26.70;25.30;;;21.80;68.20;;;;;;5066550;28;20458;-71
2021/09/12 09:43:46;;;;;;;26.47;25.07;;;22.00;66.80;;;;;;5063154;28;20677;-71
2021/09/12 09:46:33;;;;;;;25.80;24.40;;;22.10;66.90;;;;;;5056756;28;20477;-71
2021/09/12 09:49:01;;;;;;;26.60;25.27;;;22.10;66.00;;;;;;5069667;28;20484;-71
2021/09/12 09:51:29;;;;;;;26.00;24.60;;;22.10;65.30;;;;;;5069219;28;20470;-71
2021/09/12 09:53:59;;;;;;;25.80;24.40;;;22.00;65.70;;;;;;5066516;28;20485;-71
2021/09/12 09:56:30;;;;;;;25.87;24.23;;;22.10;65.20;;;;;;5068528;28;20539;-71
2021/09/12 09:58:58;;;;;;;26.43;25.03;;;22.10;64.70;;;;;;5070668;28;20473;-71
2021/09/12 10:01:25;;;;;;;26.03;24.63;;;22.00;64.70;;;;;;5066891;28;20712;-72
2021/09/12 10:03:53;;;;;;;26.70;25.30;;;22.00;64.90;;;;;;5064719;28;20825;-73
2021/09/12 10:06:20;;;;;;;27.53;26.03;;;22.20;65.30;;;;;;5069236;28;20464;-71
2021/09/12 10:08:47;;;;;;;27.97;26.40;;;22.30;65.00;;;;;;5061148;28;20882;-70
2021/09/12 10:11:16;;;;;;;25.57;24.20;;;22.60;63.70;;;;;;5065983;28;20812;-71
2021/09/12 10:13:47;;;;;;;25.67;24.33;;;22.50;63.80;;;;;;5065099;28;20992;-71
2021/09/12 10:16:17;;;;;;;28.90;27.30;;;22.40;64.10;;;;;;5065004;28;20824;-71
2021/09/12 10:18:44;;;;;;;28.20;26.50;;;22.30;64.10;;;;;;5068831;28;20474;-69
2021/09/12 10:21:23;;;;;;;26.03;24.73;;;22.40;64.40;;;;;;5069094;28;20465;-69
2021/09/12 10:23:58;;;;;;;26.53;25.07;;;22.60;64.60;;;;;;5078689;28;20458;-69
2021/09/12 10:26:30;;;;;;;26.07;24.60;;;22.70;63.90;;;;;;5074590;28;20995;-69
2021/09/12 10:28:59;;;;;;;26.87;25.30;;;22.70;63.40;;;;;;5067874;28;20998;-69
2021/09/12 10:31:37;;;;;;;25.80;24.47;;;22.60;63.80;;;;;;5063731;28;20461;-69
2021/09/12 10:34:08;;;;;;;26.50;25.17;;;22.80;62.60;;;;;;5066500;28;20477;-69
2021/09/12 10:36:36;;;;;;;26.57;25.17;;;22.80;63.00;;;;;;5067767;28;20713;-69
2021/09/12 10:39:28;;;;;;;26.80;25.40;;;22.90;63.10;;;;;;5067243;28;21071;-69
2021/09/12 10:42:16;;;;;;;26.87;25.30;;;23.00;63.40;;;;;;5053827;28;21039;-69
2021/09/12 10:44:44;;;;;;;25.70;23.97;;;23.20;62.90;;;;;;5062363;28;20481;-70
2021/09/12 10:47:14;;;;;;;26.17;24.77;;;23.30;62.50;;;;;;5066354;28;20650;-70
2021/09/12 10:49:42;;;;;;;27.27;25.70;;;23.50;62.70;;;;;;5061854;28;20854;-71
2021/09/12 10:52:10;;;;;;;26.57;24.97;;;23.60;62.60;;;;;;5065885;28;21025;-70
2021/09/12 10:55:08;;;;;;;27.30;25.80;;;23.70;61.90;;;;;;5079766;28;20622;-70
2021/09/12 10:57:37;;;;;;;26.60;25.10;;;23.90;61.40;;;;;;5046721;28;20477;-70
2021/09/12 11:00:07;;;;;;;26.00;24.60;;;24.00;61.60;;;;;;5065450;28;20504;-71
2021/09/12 11:02:34;;;;;;;26.27;24.87;;;24.00;59.80;;;;;;5067942;28;20466;-71
2021/09/12 11:05:20;;;;;;;26.77;25.27;;;23.90;59.60;;;;;;5065609;28;20541;-70
2021/09/12 11:07:54;;;;;;;26.57;25.27;;;23.70;60.40;;;;;;5062146;28;20537;-70
2021/09/12 11:10:37;;;;;;;26.63;25.23;;;23.70;60.50;;;;;;5062888;28;20478;-72
2021/09/12 11:13:04;;;;;;;26.30;24.80;;;23.70;61.10;;;;;;5059200;28;20476;-69
2021/09/12 11:15:33;;;;;;;26.00;24.60;;;23.90;61.80;;;;;;5068125;28;20474;-69
2021/09/12 11:18:00;;;;;;;26.20;24.80;;;24.10;62.00;;;;;;5065128;28;20465;-71
2021/09/12 11:20:44;;;;;;;28.13;26.73;;;24.30;61.00;;;;;;5067647;28;20478;-72
2021/09/12 11:23:11;;;;;;;26.40;24.90;;;24.50;59.70;;;;;;5055637;28;20458;-70
2021/09/12 11:25:38;;;;;;;26.33;24.83;;;24.60;59.80;;;;;;5064058;28;20453;-69
2021/09/12 11:28:07;;;;;;;26.93;25.10;;;24.50;58.70;;;;;;5063651;28;20457;-70
2021/09/12 11:30:39;;;;;;;26.60;25.20;;;24.40;58.40;;;;;;5064195;28;20577;-70
2021/09/12 11:33:06;;;;;;;26.10;24.70;;;24.40;58.60;;;;;;5059765;28;21090;-69
2021/09/12 11:35:33;;;;;;;28.23;26.60;;;24.40;58.40;;;;;;5065783;28;20502;-70
2021/09/12 11:38:05;;;;;;;26.30;24.80;;;24.30;58.30;;;;;;5064069;28;20468;-69
2021/09/12 11:40:32;;;;;;;25.60;24.20;;;24.30;58.80;;;;;;5063336;28;21238;-70
2021/09/12 11:43:09;;;;;;;27.33;25.73;;;24.10;58.50;;;;;;5060589;28;20488;-70
2021/09/12 11:45:39;;;;;;;26.80;25.30;;;24.30;58.20;;;;;;5067173;28;20477;-70
2021/09/12 11:48:06;;;;;;;26.00;24.60;;;23.90;58.70;;;;;;5063889;28;20446;-70
2021/09/12 11:50:33;;;;;;;26.80;25.30;;;23.90;59.10;;;;;;5066417;28;20500;-70
2021/09/12 11:53:10;;;;;;;27.23;25.70;;;24.00;59.00;;;;;;5065920;28;21031;-71
2021/09/12 11:55:40;;;;;;;26.93;25.53;;;24.00;59.90;;;;;;5064311;28;20473;-70
2021/09/12 11:58:10;;;;;;;26.90;25.40;;;23.90;59.30;;;;;;5066772;28;20464;-71
2021/09/12 12:00:42;;;;;;;48.33;36.90;;;24.10;58.70;;;;;;5065622;28;20493;-72
2021/09/12 12:03:11;;;;;;;29.60;27.40;;;24.20;58.90;;;;;;5065065;28;20446;-72
2021/09/12 12:05:39;;;;;;;28.07;26.37;;;24.20;58.90;;;;;;5052649;28;20549;-72
2021/09/12 12:08:07;;;;;;;26.50;24.80;;;24.20;59.00;;;;;;5057480;28;20494;-72
2021/09/12 12:10:36;;;;;;;26.13;24.53;;;24.40;58.30;;;;;;5062241;28;20999;-71
2021/09/12 12:13:03;;;;;;;26.77;25.20;;;24.50;57.90;;;;;;5061900;28;20458;-72
2021/09/12 12:15:35;;;;;;;28.47;26.77;;;24.50;57.90;;;;;;5063985;28;20481;-71
2021/09/12 12:18:09;;;;;;;26.83;25.33;;;24.60;57.50;;;;;;5060147;28;20654;-71
2021/09/12 12:20:36;;;;;;;26.57;25.13;;;24.70;57.20;;;;;;5064095;28;20995;-71
2021/09/12 12:23:18;;;;;;;28.10;26.50;;;24.60;57.50;;;;;;5062048;28;21124;-71
2021/09/12 12:25:47;;;;;;;25.33;24.03;;;24.70;57.70;;;;;;5062277;28;20449;-71
2021/09/12 12:28:19;;;;;;;27.20;25.80;;;24.80;57.50;;;;;;5058338;28;20473;-71
2021/09/12 12:30:47;;;;;;;28.20;26.60;;;25.00;57.10;;;;;;5064644;28;20537;-71
2021/09/12 12:33:16;;;;;;;26.87;25.37;;;24.90;57.10;;;;;;5065823;28;20462;-72
2021/09/12 12:36:03;;;;;;;27.10;25.70;;;24.60;57.60;;;;;;5064456;28;20478;-73